sensor_id;sensor_type;location;lat;lon;timestamp;temperature;humidity
70676;DHT22;59069;52.242;20.900;2023-02-01T00:00:35;3.16;90.55
70676;DHT22;59069;52.242;20.900;2023-02-01T00:03:01;3.18;90.62
70676;DHT22;59069;52.242;20.900;2023-02-01T00:05:27;3.22;90.62
70676;DHT22;59069;52.242;20.900;2023-02-01T00:07:52;3.22;90.56
70676;DHT22;59069;52.242;20.900;2023-02-01T00:10:18;3.27;90.53
70676;DHT22;59069;52.242;20.900;2023-02-01T00:12:44;3.29;90.44
70676;DHT22;59069;52.242;20.900;2023-02-01T00:15:10;3.33;90.42
70676;DHT22;59069;52.242;20.900;2023-02-01T00:17:35;3.35;90.29
70676;DHT22;59069;52.242;20.900;2023-02-01T00:20:02;3.36;90.20
70676;DHT22;59069;52.242;20.900;2023-02-01T00:22:28;3.37;90.10
70676;DHT22;59069;52.242;20.900;2023-02-01T00:24:53;3.39;90.01
70676;DHT22;59069;52.242;20.900;2023-02-01T00:27:19;3.42;89.80
70676;DHT22;59069;52.242;20.900;2023-02-01T00:29:46;3.46;89.51
70676;DHT22;59069;52.242;20.900;2023-02-01T00:32:12;3.46;89.31
70676;DHT22;59069;52.242;20.900;2023-02-01T00:34:38;3.47;89.14
70676;DHT22;59069;52.242;20.900;2023-02-01T00:37:04;3.49;88.86
70676;DHT22;59069;52.242;20.900;2023-02-01T00:39:29;3.54;88.60
70676;DHT22;59069;52.242;20.900;2023-02-01T00:41:55;3.56;88.36
70676;DHT22;59069;52.242;20.900;2023-02-01T00:44:21;3.57;88.16
70676;DHT22;59069;52.242;20.900;2023-02-01T00:46:46;3.59;87.91
70676;DHT22;59069;52.242;20.900;2023-02-01T00:49:12;3.62;87.72
70676;DHT22;59069;52.242;20.900;2023-02-01T00:51:37;3.63;87.42
70676;DHT22;59069;52.242;20.900;2023-02-01T00:54:03;3.66;87.10
70676;DHT22;59069;52.242;20.900;2023-02-01T00:56:29;3.64;86.86
70676;DHT22;59069;52.242;20.900;2023-02-01T00:58:55;3.64;86.62
70676;DHT22;59069;52.242;20.900;2023-02-01T01:01:23;3.63;86.35
70676;DHT22;59069;52.242;20.900;2023-02-01T01:03:55;3.62;86.09
70676;DHT22;59069;52.242;20.900;2023-02-01T01:06:23;3.57;85.96
70676;DHT22;59069;52.242;20.900;2023-02-01T01:08:54;3.56;85.72
70676;DHT22;59069;52.242;20.900;2023-02-01T01:11:25;3.56;85.52
70676;DHT22;59069;52.242;20.900;2023-02-01T01:13:52;3.50;85.48
70676;DHT22;59069;52.242;20.900;2023-02-01T01:16:20;3.46;85.31
70676;DHT22;59069;52.242;20.900;2023-02-01T01:18:47;3.42;85.27
70676;DHT22;59069;52.242;20.900;2023-02-01T01:21:14;3.37;85.27
70676;DHT22;59069;52.242;20.900;2023-02-01T01:23:40;3.35;85.29
70676;DHT22;59069;52.242;20.900;2023-02-01T01:26:08;3.33;85.63
70676;DHT22;59069;52.242;20.900;2023-02-01T01:28:34;3.35;85.74
70676;DHT22;59069;52.242;20.900;2023-02-01T01:31:00;3.35;85.76
70676;DHT22;59069;52.242;20.900;2023-02-01T01:33:25;3.37;85.57
70676;DHT22;59069;52.242;20.900;2023-02-01T01:35:51;3.39;85.41
70676;DHT22;59069;52.242;20.900;2023-02-01T01:38:16;3.40;85.29
70676;DHT22;59069;52.242;20.900;2023-02-01T01:40:47;3.44;85.08
70676;DHT22;59069;52.242;20.900;2023-02-01T01:43:15;3.42;84.76
70676;DHT22;59069;52.242;20.900;2023-02-01T01:45:41;3.39;84.68
70676;DHT22;59069;52.242;20.900;2023-02-01T01:50:51;3.37;84.48
70676;DHT22;59069;52.242;20.900;2023-02-01T01:53:23;3.39;84.41
70676;DHT22;59069;52.242;20.900;2023-02-01T01:55:53;3.39;84.43
70676;DHT22;59069;52.242;20.900;2023-02-01T01:58:23;3.42;84.31
70676;DHT22;59069;52.242;20.900;2023-02-01T02:00:51;3.40;84.18
70676;DHT22;59069;52.242;20.900;2023-02-01T02:03:21;3.43;84.06
70676;DHT22;59069;52.242;20.900;2023-02-01T02:05:49;3.44;83.88
70676;DHT22;59069;52.242;20.900;2023-02-01T02:08:17;3.40;83.74
70676;DHT22;59069;52.242;20.900;2023-02-01T02:10:48;3.42;83.64
70676;DHT22;59069;52.242;20.900;2023-02-01T02:13:32;3.39;83.42
70676;DHT22;59069;52.242;20.900;2023-02-01T02:27:16;3.32;82.64
70676;DHT22;59069;52.242;20.900;2023-02-01T02:35:59;3.29;82.41
70676;DHT22;59069;52.242;20.900;2023-02-01T02:45:05;3.27;82.37
70676;DHT22;59069;52.242;20.900;2023-02-01T02:48:21;3.25;82.38
70676;DHT22;59069;52.242;20.900;2023-02-01T02:50:59;3.25;82.37
70676;DHT22;59069;52.242;20.900;2023-02-01T02:56:51;3.19;82.56
70676;DHT22;59069;52.242;20.900;2023-02-01T02:59:38;3.16;82.74
70676;DHT22;59069;52.242;20.900;2023-02-01T03:02:25;3.18;82.90
70676;DHT22;59069;52.242;20.900;2023-02-01T03:05:10;3.16;83.06
70676;DHT22;59069;52.242;20.900;2023-02-01T03:08:04;3.15;83.18
70676;DHT22;59069;52.242;20.900;2023-02-01T03:19:06;3.20;83.23
70676;DHT22;59069;52.242;20.900;2023-02-01T03:24:06;3.19;83.46
70676;DHT22;59069;52.242;20.900;2023-02-01T03:26:38;3.20;83.62
70676;DHT22;59069;52.242;20.900;2023-02-01T03:29:11;3.22;83.69
70676;DHT22;59069;52.242;20.900;2023-02-01T03:31:38;3.19;83.84
70676;DHT22;59069;52.242;20.900;2023-02-01T03:34:04;3.16;83.92
70676;DHT22;59069;52.242;20.900;2023-02-01T03:36:43;3.11;84.14
70676;DHT22;59069;52.242;20.900;2023-02-01T03:39:24;3.08;84.50
70676;DHT22;59069;52.242;20.900;2023-02-01T03:41:56;3.05;84.66
70676;DHT22;59069;52.242;20.900;2023-02-01T03:46:59;3.03;85.26
70676;DHT22;59069;52.242;20.900;2023-02-01T03:49:34;3.03;85.43
70676;DHT22;59069;52.242;20.900;2023-02-01T03:52:01;3.05;85.52
70676;DHT22;59069;52.242;20.900;2023-02-01T03:54:29;3.06;85.58
70676;DHT22;59069;52.242;20.900;2023-02-01T03:56:59;3.09;85.60
70676;DHT22;59069;52.242;20.900;2023-02-01T03:59:26;3.12;85.67
70676;DHT22;59069;52.242;20.900;2023-02-01T04:01:52;3.11;85.59
70676;DHT22;59069;52.242;20.900;2023-02-01T04:04:18;3.11;85.55
70676;DHT22;59069;52.242;20.900;2023-02-01T04:06:48;3.15;85.40
70676;DHT22;59069;52.242;20.900;2023-02-01T04:09:14;3.15;85.44
70676;DHT22;59069;52.242;20.900;2023-02-01T04:11:39;3.15;85.43
70676;DHT22;59069;52.242;20.900;2023-02-01T04:14:05;3.19;85.35
70676;DHT22;59069;52.242;20.900;2023-02-01T04:16:32;3.19;85.20
70676;DHT22;59069;52.242;20.900;2023-02-01T04:18:58;3.22;85.06
70676;DHT22;59069;52.242;20.900;2023-02-01T04:21:25;3.26;84.94
70676;DHT22;59069;52.242;20.900;2023-02-01T04:23:51;3.23;84.78
70676;DHT22;59069;52.242;20.900;2023-02-01T04:26:16;3.25;84.64
70676;DHT22;59069;52.242;20.900;2023-02-01T04:28:42;3.25;84.51
70676;DHT22;59069;52.242;20.900;2023-02-01T04:31:08;3.26;84.39
70676;DHT22;59069;52.242;20.900;2023-02-01T04:33:33;3.27;84.28
70676;DHT22;59069;52.242;20.900;2023-02-01T04:35:59;3.26;84.26
70676;DHT22;59069;52.242;20.900;2023-02-01T04:38:25;3.29;84.11
70676;DHT22;59069;52.242;20.900;2023-02-01T04:40:50;3.27;84.03
70676;DHT22;59069;52.242;20.900;2023-02-01T04:43:17;3.29;83.92
70676;DHT22;59069;52.242;20.900;2023-02-01T04:45:48;3.30;83.82
70676;DHT22;59069;52.242;20.900;2023-02-01T04:48:14;3.30;83.79
70676;DHT22;59069;52.242;20.900;2023-02-01T04:50:40;3.27;83.67
70676;DHT22;59069;52.242;20.900;2023-02-01T04:53:06;3.29;83.59
70676;DHT22;59069;52.242;20.900;2023-02-01T04:55:31;3.32;83.51
70676;DHT22;59069;52.242;20.900;2023-02-01T04:57:57;3.27;83.48
70676;DHT22;59069;52.242;20.900;2023-02-01T05:00:23;3.30;83.38
70676;DHT22;59069;52.242;20.900;2023-02-01T05:02:48;3.32;83.29
70676;DHT22;59069;52.242;20.900;2023-02-01T05:05:14;3.30;83.19
70676;DHT22;59069;52.242;20.900;2023-02-01T05:07:40;3.33;83.08
70676;DHT22;59069;52.242;20.900;2023-02-01T05:10:06;3.32;82.95
70676;DHT22;59069;52.242;20.900;2023-02-01T05:12:31;3.35;82.93
70676;DHT22;59069;52.242;20.900;2023-02-01T05:15:15;3.33;82.85
70676;DHT22;59069;52.242;20.900;2023-02-01T05:17:41;3.33;82.79
70676;DHT22;59069;52.242;20.900;2023-02-01T05:20:08;3.33;82.76
70676;DHT22;59069;52.242;20.900;2023-02-01T05:22:34;3.33;82.68
70676;DHT22;59069;52.242;20.900;2023-02-01T05:24:59;3.35;82.63
70676;DHT22;59069;52.242;20.900;2023-02-01T05:27:25;3.35;82.62
70676;DHT22;59069;52.242;20.900;2023-02-01T05:29:50;3.33;82.59
70676;DHT22;59069;52.242;20.900;2023-02-01T05:32:16;3.35;82.55
70676;DHT22;59069;52.242;20.900;2023-02-01T05:34:41;3.35;82.54
70676;DHT22;59069;52.242;20.900;2023-02-01T05:37:07;3.32;82.52
70676;DHT22;59069;52.242;20.900;2023-02-01T05:39:33;3.33;82.51
70676;DHT22;59069;52.242;20.900;2023-02-01T05:41:58;3.33;82.33
70676;DHT22;59069;52.242;20.900;2023-02-01T05:44:24;3.30;82.20
70676;DHT22;59069;52.242;20.900;2023-02-01T05:46:50;3.27;82.24
70676;DHT22;59069;52.242;20.900;2023-02-01T05:49:17;3.26;82.56
70676;DHT22;59069;52.242;20.900;2023-02-01T05:51:43;3.25;82.75
70676;DHT22;59069;52.242;20.900;2023-02-01T05:54:09;3.25;82.83
70676;DHT22;59069;52.242;20.900;2023-02-01T05:56:35;3.23;82.88
70676;DHT22;59069;52.242;20.900;2023-02-01T05:59:00;3.25;82.96
70676;DHT22;59069;52.242;20.900;2023-02-01T06:01:26;3.22;82.98
70676;DHT22;59069;52.242;20.900;2023-02-01T06:03:51;3.22;83.01
70676;DHT22;59069;52.242;20.900;2023-02-01T06:06:17;3.25;83.08
70676;DHT22;59069;52.242;20.900;2023-02-01T06:08:44;3.22;83.10
70676;DHT22;59069;52.242;20.900;2023-02-01T06:11:09;3.23;83.18
70676;DHT22;59069;52.242;20.900;2023-02-01T06:13:35;3.22;83.07
70676;DHT22;59069;52.242;20.900;2023-02-01T06:16:02;3.20;83.24
70676;DHT22;59069;52.242;20.900;2023-02-01T06:18:28;3.20;83.41
70676;DHT22;59069;52.242;20.900;2023-02-01T06:20:56;3.20;83.56
70676;DHT22;59069;52.242;20.900;2023-02-01T06:23:22;3.22;83.59
70676;DHT22;59069;52.242;20.900;2023-02-01T06:25:53;3.25;83.45
70676;DHT22;59069;52.242;20.900;2023-02-01T06:28:23;3.23;83.45
70676;DHT22;59069;52.242;20.900;2023-02-01T06:30:49;3.23;83.42
70676;DHT22;59069;52.242;20.900;2023-02-01T06:33:14;3.23;83.39
70676;DHT22;59069;52.242;20.900;2023-02-01T06:35:43;3.23;83.48
70676;DHT22;59069;52.242;20.900;2023-02-01T06:38:13;3.25;83.50
70676;DHT22;59069;52.242;20.900;2023-02-01T06:40:39;3.25;83.40
70676;DHT22;59069;52.242;20.900;2023-02-01T06:43:05;3.25;83.39
70676;DHT22;59069;52.242;20.900;2023-02-01T06:45:30;3.26;83.36
70676;DHT22;59069;52.242;20.900;2023-02-01T06:47:58;3.32;83.26
70676;DHT22;59069;52.242;20.900;2023-02-01T06:50:24;3.29;83.14
70676;DHT22;59069;52.242;20.900;2023-02-01T06:52:49;3.30;83.07
70676;DHT22;59069;52.242;20.900;2023-02-01T06:55:15;3.30;83.00
70676;DHT22;59069;52.242;20.900;2023-02-01T06:57:40;3.30;83.03
70676;DHT22;59069;52.242;20.900;2023-02-01T07:00:06;3.32;83.00
70676;DHT22;59069;52.242;20.900;2023-02-01T07:02:32;3.33;83.03
70676;DHT22;59069;52.242;20.900;2023-02-01T07:04:58;3.32;82.97
70676;DHT22;59069;52.242;20.900;2023-02-01T07:07:23;3.32;83.00
70676;DHT22;59069;52.242;20.900;2023-02-01T07:09:49;3.30;82.99
70676;DHT22;59069;52.242;20.900;2023-02-01T07:12:15;3.30;83.02
70676;DHT22;59069;52.242;20.900;2023-02-01T07:14:41;3.33;83.06
70676;DHT22;59069;52.242;20.900;2023-02-01T07:17:06;3.35;83.10
70676;DHT22;59069;52.242;20.900;2023-02-01T07:19:32;3.36;83.02
70676;DHT22;59069;52.242;20.900;2023-02-01T07:21:58;3.36;82.89
70676;DHT22;59069;52.242;20.900;2023-02-01T07:24:23;3.36;82.90
70676;DHT22;59069;52.242;20.900;2023-02-01T07:26:49;3.37;82.90
70676;DHT22;59069;52.242;20.900;2023-02-01T07:29:17;3.37;83.01
70676;DHT22;59069;52.242;20.900;2023-02-01T07:31:43;3.37;83.10
70676;DHT22;59069;52.242;20.900;2023-02-01T07:34:08;3.36;83.11
70676;DHT22;59069;52.242;20.900;2023-02-01T07:36:34;3.37;83.29
70676;DHT22;59069;52.242;20.900;2023-02-01T07:39:02;3.37;83.45
70676;DHT22;59069;52.242;20.900;2023-02-01T07:41:28;3.42;83.39
70676;DHT22;59069;52.242;20.900;2023-02-01T07:43:54;3.43;83.22
70676;DHT22;59069;52.242;20.900;2023-02-01T07:46:20;3.44;83.09
70676;DHT22;59069;52.242;20.900;2023-02-01T07:48:45;3.44;83.04
70676;DHT22;59069;52.242;20.900;2023-02-01T07:51:13;3.46;82.96
70676;DHT22;59069;52.242;20.900;2023-02-01T07:53:39;3.47;82.94
70676;DHT22;59069;52.242;20.900;2023-02-01T07:56:14;3.47;82.92
70676;DHT22;59069;52.242;20.900;2023-02-01T07:58:39;3.49;82.94
70676;DHT22;59069;52.242;20.900;2023-02-01T08:01:05;3.52;82.86
70676;DHT22;59069;52.242;20.900;2023-02-01T08:03:47;3.54;82.81
70676;DHT22;59069;52.242;20.900;2023-02-01T08:06:13;3.56;82.73
70676;DHT22;59069;52.242;20.900;2023-02-01T08:08:38;3.57;82.57
70676;DHT22;59069;52.242;20.900;2023-02-01T08:11:06;3.59;82.51
70676;DHT22;59069;52.242;20.900;2023-02-01T08:13:33;3.63;82.44
70676;DHT22;59069;52.242;20.900;2023-02-01T08:16:02;3.62;82.31
70676;DHT22;59069;52.242;20.900;2023-02-01T08:18:29;3.64;82.31
70676;DHT22;59069;52.242;20.900;2023-02-01T08:20:55;3.62;82.23
70676;DHT22;59069;52.242;20.900;2023-02-01T08:23:21;3.64;82.33
70676;DHT22;59069;52.242;20.900;2023-02-01T08:25:47;3.66;82.38
70676;DHT22;59069;52.242;20.900;2023-02-01T08:28:13;3.66;82.39
70676;DHT22;59069;52.242;20.900;2023-02-01T08:30:39;3.66;82.41
70676;DHT22;59069;52.242;20.900;2023-02-01T08:33:05;3.69;82.44
70676;DHT22;59069;52.242;20.900;2023-02-01T08:35:35;3.67;82.50
70676;DHT22;59069;52.242;20.900;2023-02-01T08:38:01;3.69;82.70
70676;DHT22;59069;52.242;20.900;2023-02-01T08:40:27;3.64;82.87
70676;DHT22;59069;52.242;20.900;2023-02-01T08:42:53;3.67;83.04
70676;DHT22;59069;52.242;20.900;2023-02-01T08:45:23;3.70;83.20
70676;DHT22;59069;52.242;20.900;2023-02-01T08:47:52;3.69;83.22
70676;DHT22;59069;52.242;20.900;2023-02-01T08:50:19;3.69;83.23
70676;DHT22;59069;52.242;20.900;2023-02-01T08:52:45;3.70;83.25
70676;DHT22;59069;52.242;20.900;2023-02-01T08:55:11;3.73;83.10
70676;DHT22;59069;52.242;20.900;2023-02-01T08:57:37;3.76;82.83
70676;DHT22;59069;52.242;20.900;2023-02-01T09:00:05;3.78;82.48
70676;DHT22;59069;52.242;20.900;2023-02-01T09:02:32;3.83;82.22
70676;DHT22;59069;52.242;20.900;2023-02-01T09:04:57;3.85;81.96
70676;DHT22;59069;52.242;20.900;2023-02-01T09:07:23;3.85;81.74
70676;DHT22;59069;52.242;20.900;2023-02-01T09:09:49;3.91;81.40
70676;DHT22;59069;52.242;20.900;2023-02-01T09:12:14;3.93;81.06
70676;DHT22;59069;52.242;20.900;2023-02-01T09:14:40;3.93;80.85
70676;DHT22;59069;52.242;20.900;2023-02-01T09:17:05;3.95;80.72
70676;DHT22;59069;52.242;20.900;2023-02-01T09:19:31;3.98;80.68
70676;DHT22;59069;52.242;20.900;2023-02-01T09:21:57;4.02;80.50
70676;DHT22;59069;52.242;20.900;2023-02-01T09:24:26;4.04;80.35
70676;DHT22;59069;52.242;20.900;2023-02-01T09:26:52;4.08;80.25
70676;DHT22;59069;52.242;20.900;2023-02-01T09:29:18;4.11;80.15
70676;DHT22;59069;52.242;20.900;2023-02-01T09:31:44;4.17;79.84
70676;DHT22;59069;52.242;20.900;2023-02-01T09:34:09;4.15;79.58
70676;DHT22;59069;52.242;20.900;2023-02-01T09:36:36;4.17;79.42
70676;DHT22;59069;52.242;20.900;2023-02-01T09:39:03;4.19;79.53
70676;DHT22;59069;52.242;20.900;2023-02-01T09:45:10;4.42;80.13
70676;DHT22;59069;52.242;20.900;2023-02-01T09:47:16;4.66;80.10
70676;DHT22;59069;52.242;20.900;2023-02-01T09:52:22;4.98;79.35
70676;DHT22;59069;52.242;20.900;2023-02-01T09:54:53;5.24;79.85
70676;DHT22;59069;52.242;20.900;2023-02-01T09:57:26;5.38;79.24
70676;DHT22;59069;52.242;20.900;2023-02-01T10:00:05;5.38;76.82
70676;DHT22;59069;52.242;20.900;2023-02-01T10:02:35;5.35;76.06
70676;DHT22;59069;52.242;20.900;2023-02-01T10:05:03;5.34;75.65
70676;DHT22;59069;52.242;20.900;2023-02-01T10:07:47;5.24;75.20
70676;DHT22;59069;52.242;20.900;2023-02-01T10:10:53;5.16;75.00
70676;DHT22;59069;52.242;20.900;2023-02-01T10:13:54;5.04;75.10
70676;DHT22;59069;52.242;20.900;2023-02-01T10:16:40;4.98;75.25
70676;DHT22;59069;52.242;20.900;2023-02-01T10:29:41;4.75;76.02
70676;DHT22;59069;52.242;20.900;2023-02-01T10:32:21;4.69;76.14
70676;DHT22;59069;52.242;20.900;2023-02-01T10:34:52;4.67;76.28
70676;DHT22;59069;52.242;20.900;2023-02-01T10:37:33;4.69;76.63
70676;DHT22;59069;52.242;20.900;2023-02-01T10:40:15;4.67;76.78
70676;DHT22;59069;52.242;20.900;2023-02-01T10:42:43;4.73;76.87
70676;DHT22;59069;52.242;20.900;2023-02-01T10:45:24;4.75;76.75
70676;DHT22;59069;52.242;20.900;2023-02-01T10:47:52;4.75;76.72
70676;DHT22;59069;52.242;20.900;2023-02-01T10:53:12;4.76;76.85
70676;DHT22;59069;52.242;20.900;2023-02-01T10:58:29;5.01;77.28
70676;DHT22;59069;52.242;20.900;2023-02-01T11:01:00;5.17;77.27
70676;DHT22;59069;52.242;20.900;2023-02-01T11:03:42;5.34;76.63
70676;DHT22;59069;52.242;20.900;2023-02-01T11:14:39;6.05;76.15
70676;DHT22;59069;52.242;20.900;2023-02-01T11:19:47;6.07;74.02
70676;DHT22;59069;52.242;20.900;2023-02-01T11:22:20;6.00;74.00
70676;DHT22;59069;52.242;20.900;2023-02-01T11:24:46;5.93;73.99
70676;DHT22;59069;52.242;20.900;2023-02-01T11:27:18;5.79;73.87
70676;DHT22;59069;52.242;20.900;2023-02-01T11:29:49;5.61;73.84
70676;DHT22;59069;52.242;20.900;2023-02-01T11:32:17;5.48;74.10
70676;DHT22;59069;52.242;20.900;2023-02-01T11:34:47;5.37;74.56
70676;DHT22;59069;52.242;20.900;2023-02-01T11:39:55;5.21;75.63
70676;DHT22;59069;52.242;20.900;2023-02-01T11:42:21;5.17;76.06
70676;DHT22;59069;52.242;20.900;2023-02-01T11:44:47;5.16;76.41
70676;DHT22;59069;52.242;20.900;2023-02-01T11:49:50;5.34;77.17
70676;DHT22;59069;52.242;20.900;2023-02-01T11:58:25;5.75;76.20
70676;DHT22;59069;52.242;20.900;2023-02-01T12:01:40;5.79;75.88
70676;DHT22;59069;52.242;20.900;2023-02-01T12:12:39;5.47;76.14
70676;DHT22;59069;52.242;20.900;2023-02-01T12:26:56;5.51;77.57
70676;DHT22;59069;52.242;20.900;2023-02-01T12:41:02;5.27;77.98
70676;DHT22;59069;52.242;20.900;2023-02-01T12:46:09;5.23;78.61
70676;DHT22;59069;52.242;20.900;2023-02-01T12:48:47;5.17;78.51
70676;DHT22;59069;52.242;20.900;2023-02-01T12:51:25;5.20;78.84
70676;DHT22;59069;52.242;20.900;2023-02-01T12:54:16;5.26;79.22
70676;DHT22;59069;52.242;20.900;2023-02-01T12:56:49;5.26;78.94
70676;DHT22;59069;52.242;20.900;2023-02-01T13:01:56;5.30;78.78
70676;DHT22;59069;52.242;20.900;2023-02-01T13:04:33;5.28;78.68
70676;DHT22;59069;52.242;20.900;2023-02-01T13:07:10;5.28;78.42
70676;DHT22;59069;52.242;20.900;2023-02-01T13:09:56;5.27;78.28
70676;DHT22;59069;52.242;20.900;2023-02-01T13:12:30;5.20;78.41
70676;DHT22;59069;52.242;20.900;2023-02-01T13:15:12;5.14;78.72
70676;DHT22;59069;52.242;20.900;2023-02-01T13:17:40;5.14;79.08
70676;DHT22;59069;52.242;20.900;2023-02-01T13:26:01;5.08;79.15
70676;DHT22;59069;52.242;20.900;2023-02-01T13:28:34;5.06;79.14
70676;DHT22;59069;52.242;20.900;2023-02-01T13:34:32;4.96;79.23
70676;DHT22;59069;52.242;20.900;2023-02-01T13:45:21;4.81;79.66
70676;DHT22;59069;52.242;20.900;2023-02-01T13:47:50;4.73;79.76
70676;DHT22;59069;52.242;20.900;2023-02-01T13:50:38;4.70;80.08
70676;DHT22;59069;52.242;20.900;2023-02-01T13:55:39;4.60;80.44
70676;DHT22;59069;52.242;20.900;2023-02-01T14:03:57;4.53;81.11
70676;DHT22;59069;52.242;20.900;2023-02-01T14:16:42;4.81;81.71
70676;DHT22;59069;52.242;20.900;2023-02-01T14:19:22;4.83;81.09
70676;DHT22;59069;52.242;20.900;2023-02-01T14:21:51;4.83;80.54
70676;DHT22;59069;52.242;20.900;2023-02-01T14:24:36;4.79;80.35
70676;DHT22;59069;52.242;20.900;2023-02-01T14:29:38;4.73;80.40
70676;DHT22;59069;52.242;20.900;2023-02-01T14:32:19;4.72;80.55
70676;DHT22;59069;52.242;20.900;2023-02-01T14:47:47;4.77;80.11
70676;DHT22;59069;52.242;20.900;2023-02-01T15:04:15;4.79;79.47
70676;DHT22;59069;52.242;20.900;2023-02-01T15:07:07;4.79;79.47
70676;DHT22;59069;52.242;20.900;2023-02-01T15:09:37;4.77;79.51
70676;DHT22;59069;52.242;20.900;2023-02-01T15:12:15;4.75;79.54
70676;DHT22;59069;52.242;20.900;2023-02-01T15:14:48;4.73;79.67
70676;DHT22;59069;52.242;20.900;2023-02-01T15:20:00;4.67;79.83
70676;DHT22;59069;52.242;20.900;2023-02-01T15:22:27;4.66;80.01
70676;DHT22;59069;52.242;20.900;2023-02-01T15:24:55;4.65;80.08
70676;DHT22;59069;52.242;20.900;2023-02-01T15:27:21;4.65;80.20
70676;DHT22;59069;52.242;20.900;2023-02-01T15:29:47;4.65;80.22
70676;DHT22;59069;52.242;20.900;2023-02-01T15:32:35;4.62;80.22
70676;DHT22;59069;52.242;20.900;2023-02-01T15:35:01;4.62;80.28
70676;DHT22;59069;52.242;20.900;2023-02-01T15:37:28;4.60;80.39
70676;DHT22;59069;52.242;20.900;2023-02-01T15:42:33;4.59;80.54
70676;DHT22;59069;52.242;20.900;2023-02-01T15:44:59;4.57;80.69
70676;DHT22;59069;52.242;20.900;2023-02-01T15:47:28;4.59;80.80
70676;DHT22;59069;52.242;20.900;2023-02-01T15:49:58;4.57;80.87
70676;DHT22;59069;52.242;20.900;2023-02-01T15:52:35;4.57;80.95
70676;DHT22;59069;52.242;20.900;2023-02-01T15:55:06;4.56;81.02
70676;DHT22;59069;52.242;20.900;2023-02-01T15:57:34;4.56;81.13
70676;DHT22;59069;52.242;20.900;2023-02-01T16:00:19;4.50;80.99
70676;DHT22;59069;52.242;20.900;2023-02-01T16:02:58;4.45;80.96
70676;DHT22;59069;52.242;20.900;2023-02-01T16:05:34;4.39;81.34
70676;DHT22;59069;52.242;20.900;2023-02-01T16:08:30;4.31;81.59
70676;DHT22;59069;52.242;20.900;2023-02-01T16:13:34;4.19;82.37
70676;DHT22;59069;52.242;20.900;2023-02-01T16:16:01;4.18;82.64
70676;DHT22;59069;52.242;20.900;2023-02-01T16:18:26;4.15;82.78
70676;DHT22;59069;52.242;20.900;2023-02-01T16:20:52;4.17;82.89
70676;DHT22;59069;52.242;20.900;2023-02-01T16:23:18;4.15;83.02
70676;DHT22;59069;52.242;20.900;2023-02-01T16:25:46;4.15;83.05
70676;DHT22;59069;52.242;20.900;2023-02-01T16:28:11;4.18;83.05
70676;DHT22;59069;52.242;20.900;2023-02-01T16:30:37;4.17;83.10
70676;DHT22;59069;52.242;20.900;2023-02-01T16:33:03;4.18;83.02
70676;DHT22;59069;52.242;20.900;2023-02-01T16:35:37;4.18;82.87
70676;DHT22;59069;52.242;20.900;2023-02-01T16:38:11;4.18;83.01
70676;DHT22;59069;52.242;20.900;2023-02-01T16:40:41;4.18;83.18
70676;DHT22;59069;52.242;20.900;2023-02-01T16:43:12;4.18;83.19
70676;DHT22;59069;52.242;20.900;2023-02-01T16:45:38;4.18;83.13
70676;DHT22;59069;52.242;20.900;2023-02-01T16:48:06;4.18;83.08
70676;DHT22;59069;52.242;20.900;2023-02-01T16:50:32;4.15;83.01
70676;DHT22;59069;52.242;20.900;2023-02-01T16:52:59;4.14;83.13
70676;DHT22;59069;52.242;20.900;2023-02-01T16:55:24;4.15;83.18
70676;DHT22;59069;52.242;20.900;2023-02-01T16:57:51;4.17;83.17
70676;DHT22;59069;52.242;20.900;2023-02-01T17:00:16;4.15;83.22
70676;DHT22;59069;52.242;20.900;2023-02-01T17:02:43;4.18;83.30
70676;DHT22;59069;52.242;20.900;2023-02-01T17:05:10;4.17;83.29
70676;DHT22;59069;52.242;20.900;2023-02-01T17:07:37;4.15;83.28
70676;DHT22;59069;52.242;20.900;2023-02-01T17:10:04;4.14;83.23
70676;DHT22;59069;52.242;20.900;2023-02-01T17:12:32;4.15;83.21
70676;DHT22;59069;52.242;20.900;2023-02-01T17:14:59;4.19;83.25
70676;DHT22;59069;52.242;20.900;2023-02-01T17:17:36;4.17;83.25
70676;DHT22;59069;52.242;20.900;2023-02-01T17:20:03;4.15;83.31
70676;DHT22;59069;52.242;20.900;2023-02-01T17:22:29;4.12;83.38
70676;DHT22;59069;52.242;20.900;2023-02-01T17:24:54;4.11;83.40
70676;DHT22;59069;52.242;20.900;2023-02-01T17:27:20;4.12;83.36
70676;DHT22;59069;52.242;20.900;2023-02-01T17:29:46;4.11;83.37
70676;DHT22;59069;52.242;20.900;2023-02-01T17:32:22;4.07;83.37
70676;DHT22;59069;52.242;20.900;2023-02-01T17:34:49;4.09;83.39
70676;DHT22;59069;52.242;20.900;2023-02-01T17:37:29;4.07;83.36
70676;DHT22;59069;52.242;20.900;2023-02-01T17:39:55;4.05;83.34
70676;DHT22;59069;52.242;20.900;2023-02-01T17:42:26;4.02;83.31
70676;DHT22;59069;52.242;20.900;2023-02-01T17:44:55;4.04;83.39
70676;DHT22;59069;52.242;20.900;2023-02-01T17:47:22;4.02;83.43
70676;DHT22;59069;52.242;20.900;2023-02-01T17:49:47;4.01;83.60
70676;DHT22;59069;52.242;20.900;2023-02-01T17:52:20;4.01;83.75
70676;DHT22;59069;52.242;20.900;2023-02-01T17:54:45;4.01;83.94
70676;DHT22;59069;52.242;20.900;2023-02-01T17:57:14;3.99;84.12
70676;DHT22;59069;52.242;20.900;2023-02-01T17:59:41;4.02;84.19
70676;DHT22;59069;52.242;20.900;2023-02-01T18:02:19;4.01;84.21
70676;DHT22;59069;52.242;20.900;2023-02-01T18:04:45;4.01;84.15
70676;DHT22;59069;52.242;20.900;2023-02-01T18:07:11;3.99;84.10
70676;DHT22;59069;52.242;20.900;2023-02-01T18:09:36;3.95;84.00
70676;DHT22;59069;52.242;20.900;2023-02-01T18:12:03;3.98;83.84
70676;DHT22;59069;52.242;20.900;2023-02-01T18:14:30;3.94;83.80
70676;DHT22;59069;52.242;20.900;2023-02-01T18:16:55;3.95;83.77
70676;DHT22;59069;52.242;20.900;2023-02-01T18:19:21;3.91;83.83
70676;DHT22;59069;52.242;20.900;2023-02-01T18:21:46;3.87;83.79
70676;DHT22;59069;52.242;20.900;2023-02-01T18:24:14;3.81;84.03
70676;DHT22;59069;52.242;20.900;2023-02-01T18:26:41;3.74;84.46
70676;DHT22;59069;52.242;20.900;2023-02-01T18:29:07;3.69;84.77
70676;DHT22;59069;52.242;20.900;2023-02-01T18:31:35;3.69;85.10
70676;DHT22;59069;52.242;20.900;2023-02-01T18:34:01;3.69;85.32
70676;DHT22;59069;52.242;20.900;2023-02-01T18:36:28;3.67;85.46
70676;DHT22;59069;52.242;20.900;2023-02-01T18:38:55;3.70;85.48
70676;DHT22;59069;52.242;20.900;2023-02-01T18:41:22;3.70;85.48
70676;DHT22;59069;52.242;20.900;2023-02-01T18:43:50;3.73;85.44
70676;DHT22;59069;52.242;20.900;2023-02-01T18:46:16;3.76;85.35
70676;DHT22;59069;52.242;20.900;2023-02-01T18:48:42;3.76;85.34
70676;DHT22;59069;52.242;20.900;2023-02-01T18:51:13;3.76;85.33
70676;DHT22;59069;52.242;20.900;2023-02-01T18:53:41;3.73;85.26
70676;DHT22;59069;52.242;20.900;2023-02-01T18:56:10;3.76;85.24
70676;DHT22;59069;52.242;20.900;2023-02-01T18:58:37;3.76;85.27
70676;DHT22;59069;52.242;20.900;2023-02-01T19:01:06;3.77;85.23